createdAt,value
2022-08-22T06:31:32.640Z,1.200
2022-08-22T06:32:58.563Z,1.100
2022-08-22T06:33:21.454Z,1.100
2022-08-22T06:34:35.556Z,1.300
2022-08-22T06:35:27.493Z,1.200
2022-08-22T06:36:25.461Z,1.200
2022-08-22T06:37:25.475Z,1.300
2022-08-22T06:38:28.967Z,1.500
2022-08-22T06:39:26.846Z,1.400
2022-08-22T06:40:21.572Z,1.550
2022-08-22T06:41:31.363Z,1.700
2022-08-22T06:42:32.112Z,1.300
2022-08-22T06:43:29.255Z,1.100
2022-08-22T06:44:32.293Z,1.100
2022-08-22T06:45:22.617Z,1.250
2022-08-22T06:46:25.915Z,1.400
2022-08-22T06:47:21.149Z,1.300
2022-08-22T06:48:25.483Z,1.400
2022-08-22T06:49:28.378Z,1.300
2022-08-22T06:50:23.031Z,1.300
2022-08-22T06:51:36.282Z,1.550
2022-08-22T06:52:30.078Z,1.300
2022-08-22T06:53:29.163Z,1.400
2022-08-22T06:54:28.084Z,1.300
2022-08-22T06:55:26.158Z,1.300
2022-08-22T06:56:24.232Z,1.250
2022-08-22T06:57:24.523Z,1.350
2022-08-22T06:58:37.802Z,1.350
2022-08-22T06:59:32.059Z,1.100
2022-08-22T07:00:24.919Z,1.200
2022-08-22T07:01:23.083Z,1.100
2022-08-22T07:02:37.137Z,1.250
2022-08-22T07:03:23.879Z,1.300
2022-08-22T07:04:24.934Z,1.250
2022-08-22T07:05:20.712Z,1.200
2022-08-22T07:06:29.942Z,1.300
2022-08-22T07:07:29.725Z,1.200
2022-08-22T07:08:24.279Z,1.200
2022-08-22T07:09:31.307Z,1.000
2022-08-22T07:10:29.216Z,1.350
2022-08-22T07:11:23.022Z,1.200
2022-08-22T07:12:24.114Z,1.000
2022-08-22T07:13:30.540Z,1.200
2022-08-22T07:14:24.779Z,1.100
2022-08-22T07:15:26.704Z,1.200
2022-08-22T07:16:32.516Z,1.050
2022-08-22T07:17:27.344Z,1.000
2022-08-22T07:18:26.756Z,1.100
2022-08-22T07:19:27.078Z,1.400
2022-08-22T07:20:30.746Z,1.200
2022-08-22T07:21:25.347Z,0.950
2022-08-22T07:22:22.831Z,1.200
2022-08-22T07:23:21.759Z,1.300
2022-08-22T07:24:32.455Z,1.100
2022-08-22T07:25:23.799Z,1.050
2022-08-22T07:26:23.400Z,1.200
2022-08-22T07:27:31.873Z,1.000
2022-08-22T07:28:34.721Z,1.250
2022-08-22T07:29:23.101Z,1.300
2022-08-22T07:30:28.571Z,1.150
2022-08-22T07:31:27.135Z,1.150
2022-08-22T07:32:25.566Z,1.200
2022-08-22T07:33:29.774Z,1.350
2022-08-22T07:34:19.741Z,1.600
2022-08-22T07:35:25.723Z,1.300
2022-08-22T07:36:27.362Z,1.300
2022-08-22T07:37:29.034Z,1.300
2022-08-22T07:38:20.416Z,1.300
2022-08-22T07:39:23.179Z,1.150
2022-08-22T07:40:33.781Z,1.200
2022-08-22T07:41:24.888Z,1.100
2022-08-22T07:42:30.166Z,1.350
2022-08-22T07:43:23.019Z,1.100
2022-08-22T07:44:50.017Z,1.450
2022-08-22T07:45:23.947Z,1.200
2022-08-22T07:46:26.356Z,1.000
2022-08-22T07:47:37.945Z,1.100
2022-08-22T07:48:30.037Z,1.000
2022-08-22T07:49:22.892Z,1.100
2022-08-22T07:50:22.953Z,1.250
2022-08-22T07:51:30.968Z,1.300
2022-08-22T07:52:22.732Z,1.200
2022-08-22T07:53:30.321Z,1.200
2022-08-22T07:54:34.720Z,1.500
2022-08-22T07:55:32.686Z,1.100
2022-08-22T07:56:25.159Z,1.050
2022-08-22T07:57:22.791Z,1.300
2022-08-22T07:58:33.803Z,1.150
2022-08-22T07:59:24.128Z,1.000
2022-08-22T08:00:25.230Z,1.150
2022-08-22T08:01:32.980Z,1.200
2022-08-22T08:02:28.945Z,1.000
2022-08-22T08:03:22.974Z,1.200
2022-08-22T08:04:23.269Z,1.100
2022-08-22T08:05:32.494Z,1.100
2022-08-22T08:06:26.899Z,1.200
2022-08-22T08:07:24.314Z,1.000
2022-08-22T08:08:26.156Z,1.050
2022-08-22T08:09:28.821Z,1.000
2022-08-22T08:10:24.473Z,1.500
2022-08-22T08:11:23.670Z,1.200
2022-08-22T08:12:31.589Z,1.250
2022-08-22T08:13:44.195Z,1.000
2022-08-22T08:14:24.406Z,1.100
2022-08-22T08:15:27.284Z,1.200
2022-08-22T08:16:29.453Z,1.150
2022-08-22T08:17:28.899Z,1.100
2022-08-22T08:18:21.026Z,1.100
2022-08-22T08:19:22.838Z,1.300
2022-08-22T08:20:24.077Z,1.200
2022-08-22T08:21:20.901Z,1.100
2022-08-22T08:22:30.062Z,1.200
2022-08-22T08:23:24.955Z,1.250
2022-08-22T08:24:26.061Z,1.500
2022-08-22T08:25:21.133Z,1.600
2022-08-22T08:26:29.850Z,1.250
2022-08-22T08:27:21.468Z,1.300
2022-08-22T08:28:22.922Z,1.200
2022-08-22T08:29:34.295Z,1.150
2022-08-22T08:30:29.241Z,1.050
2022-08-22T08:31:24.945Z,1.200
2022-08-22T08:32:21.213Z,1.250
2022-08-22T08:33:34.473Z,1.150
2022-08-22T08:34:24.914Z,1.200
2022-08-22T08:35:25.953Z,1.100
2022-08-22T08:36:35.303Z,1.000
2022-08-22T08:37:29.320Z,1.050
2022-08-22T08:38:27.285Z,1.100
2022-08-22T08:39:22.475Z,1.000
2022-08-22T08:40:31.468Z,0.950
2022-08-22T08:41:30.163Z,1.050
2022-08-22T08:42:25.698Z,1.100
2022-08-22T08:43:31.064Z,0.900
2022-08-22T08:44:29.145Z,1.050
2022-08-22T08:45:33.640Z,1.100
2022-08-22T08:46:20.891Z,1.000
2022-08-22T08:47:31.234Z,1.000
2022-08-22T08:48:23.628Z,1.000
2022-08-22T08:49:26.847Z,1.000
2022-08-22T08:50:33.174Z,1.200
2022-08-22T08:51:31.178Z,1.100
2022-08-22T08:52:25.259Z,1.000
2022-08-22T08:53:21.925Z,0.900
2022-08-22T08:54:32.487Z,0.950
2022-08-22T08:55:29.772Z,1.000
2022-08-22T08:56:25.400Z,0.900
2022-08-22T08:57:23.580Z,1.000
2022-08-22T08:58:29.184Z,1.150
2022-08-22T08:59:25.175Z,1.200
2022-08-22T09:00:21.344Z,1.100
2022-08-22T09:01:27.524Z,1.100
2022-08-22T09:02:33.892Z,1.050
2022-08-22T09:03:30.801Z,1.100
2022-08-22T09:04:27.730Z,0.800
2022-08-22T09:05:21.995Z,1.150
2022-08-22T09:06:25.146Z,1.050
2022-08-22T09:07:22.859Z,0.900
2022-08-22T09:08:20.047Z,1.050
2022-08-22T09:09:27.181Z,1.100
2022-08-22T09:10:23.175Z,1.000
2022-08-22T09:11:34.776Z,1.100
2022-08-22T09:12:24.254Z,1.100
2022-08-22T09:13:26.723Z,1.250
2022-08-22T09:14:26.347Z,1.050
2022-08-22T09:15:23.324Z,1.100
2022-08-22T09:16:23.211Z,1.150
2022-08-22T09:17:23.212Z,1.050
2022-08-22T09:18:34.933Z,1.000
2022-08-22T09:19:29.062Z,1.100
2022-08-22T09:20:25.293Z,1.100
2022-08-22T09:21:30.569Z,1.000
2022-08-22T09:22:26.125Z,1.050
2022-08-22T09:23:29.093Z,1.000
2022-08-22T09:24:19.923Z,1.050
2022-08-22T09:25:38.552Z,0.900
2022-08-22T09:26:22.578Z,1.150
2022-08-22T09:27:25.535Z,1.000
2022-08-22T09:28:24.586Z,0.800
2022-08-22T09:29:32.490Z,1.050
2022-08-22T09:30:29.015Z,1.000
2022-08-22T09:31:47.869Z,0.950
2022-08-22T09:32:38.630Z,0.900
2022-08-22T09:33:24.584Z,0.900
2022-08-22T09:34:25.509Z,0.950
2022-08-22T09:35:22.627Z,1.000
2022-08-22T09:36:32.648Z,0.950
2022-08-22T09:37:27.296Z,0.950
2022-08-22T09:38:24.253Z,0.900
2022-08-22T09:39:22.810Z,1.100
2022-08-22T09:40:29.578Z,0.800
2022-08-22T09:41:25.386Z,1.000
2022-08-22T09:42:22.629Z,0.900
2022-08-22T09:43:21.127Z,0.900
2022-08-22T09:44:22.122Z,1.000
2022-08-22T09:45:23.501Z,0.950
2022-08-22T09:46:32.279Z,0.900
2022-08-22T09:47:32.712Z,1.100
2022-08-22T09:48:26.676Z,1.100
2022-08-22T09:49:21.317Z,0.900
2022-08-22T09:50:29.511Z,1.050
2022-08-22T09:51:31.584Z,0.950
2022-08-22T09:52:34.343Z,1.000
2022-08-22T09:53:29.449Z,1.000
2022-08-22T09:54:32.932Z,1.000
2022-08-22T09:55:27.899Z,0.900
2022-08-22T09:56:26.051Z,0.900
2022-08-22T09:57:28.848Z,1.000
2022-08-22T09:58:24.460Z,1.000
2022-08-22T09:59:24.297Z,1.000
2022-08-22T10:00:34.373Z,1.000
2022-08-22T10:01:21.908Z,1.050
2022-08-22T10:02:25.117Z,1.100
2022-08-22T10:03:22.453Z,1.050
2022-08-22T10:04:33.510Z,0.900
2022-08-22T10:05:41.249Z,1.000
2022-08-22T10:06:27.245Z,1.000
2022-08-22T10:07:27.260Z,1.000
2022-08-22T10:08:32.295Z,0.800
2022-08-22T10:09:31.350Z,1.000
2022-08-22T10:10:21.678Z,1.050
2022-08-22T10:11:38.715Z,0.850
2022-08-22T10:12:33.841Z,1.000
2022-08-22T10:13:25.965Z,0.850
2022-08-22T10:14:33.261Z,0.900
2022-08-22T10:15:28.909Z,0.950
2022-08-22T10:16:34.328Z,1.050
2022-08-22T10:17:22.238Z,1.100
2022-08-22T10:18:26.305Z,0.900
2022-08-22T10:19:27.166Z,0.950
2022-08-22T10:20:27.745Z,1.000
2022-08-22T10:21:32.148Z,1.000
2022-08-22T10:22:30.282Z,0.900
2022-08-22T10:23:25.148Z,0.900
2022-08-22T10:24:28.639Z,0.900
2022-08-22T10:25:32.761Z,1.000
2022-08-22T10:26:33.217Z,1.000
2022-08-22T10:27:26.820Z,1.050
2022-08-22T10:28:23.448Z,1.100
2022-08-22T10:29:22.977Z,0.950
2022-08-22T10:30:25.123Z,1.050
2022-08-22T10:31:25.382Z,1.000
2022-08-22T10:32:27.030Z,0.900
2022-08-22T10:33:29.256Z,1.000
2022-08-22T10:34:23.040Z,1.100
2022-08-22T10:35:33.819Z,1.000
2022-08-22T10:36:26.278Z,1.000
2022-08-22T10:37:31.597Z,1.000
2022-08-22T10:38:25.736Z,1.000
2022-08-22T10:39:26.195Z,1.200
2022-08-22T10:40:27.690Z,0.800
2022-08-22T10:41:24.224Z,1.100
2022-08-22T10:42:23.090Z,1.050
2022-08-22T10:43:28.751Z,0.900
2022-08-22T10:44:26.717Z,1.050
2022-08-22T10:45:23.928Z,0.900
2022-08-22T10:46:24.278Z,1.000
2022-08-22T10:47:22.219Z,1.050
2022-08-22T10:48:22.982Z,1.100
2022-08-22T10:49:29.108Z,1.050
2022-08-22T10:50:32.854Z,1.050
2022-08-22T10:51:21.769Z,1.200
2022-08-22T10:52:24.597Z,1.050
2022-08-22T10:53:32.777Z,1.000
2022-08-22T10:54:28.093Z,0.900
2022-08-22T10:55:24.589Z,1.100
2022-08-22T10:56:28.648Z,1.100
2022-08-22T10:57:21.482Z,0.950
2022-08-22T10:58:26.241Z,1.000
2022-08-22T10:59:22.771Z,1.100
2022-08-22T11:00:25.513Z,0.950
2022-08-22T11:01:41.687Z,0.900
2022-08-22T11:02:23.301Z,1.000
2022-08-22T11:03:24.781Z,1.200
2022-08-22T11:04:30.940Z,1.000
2022-08-22T11:05:25.397Z,0.950
2022-08-22T11:06:25.382Z,1.200
2022-08-22T11:07:23.828Z,1.000
2022-08-22T11:08:27.935Z,1.000
2022-08-22T11:09:23.416Z,1.100
2022-08-22T11:10:20.141Z,1.050
2022-08-22T11:11:32.621Z,1.100
2022-08-22T11:12:26.688Z,1.000
2022-08-22T11:13:27.501Z,1.100
2022-08-22T11:14:28.138Z,1.000
2022-08-22T11:15:34.483Z,1.000
2022-08-22T11:16:24.158Z,1.000
2022-08-22T11:17:30.880Z,1.000
2022-08-22T11:18:21.980Z,1.000
2022-08-22T11:19:27.401Z,1.100
2022-08-22T11:20:21.583Z,0.900
2022-08-22T11:21:24.876Z,1.050
2022-08-22T11:22:27.183Z,0.900
2022-08-22T11:23:24.585Z,0.900
2022-08-22T11:24:35.726Z,0.900
2022-08-22T11:25:36.208Z,1.050
2022-08-22T11:26:33.817Z,1.100
2022-08-22T11:27:25.295Z,0.950
2022-08-22T11:28:33.231Z,1.000
2022-08-22T11:29:22.153Z,0.950
2022-08-22T11:30:26.055Z,1.000
2022-08-22T11:31:25.712Z,0.950
2022-08-22T11:32:24.791Z,1.100
2022-08-22T11:33:46.701Z,1.000
2022-08-22T11:34:25.932Z,1.000
2022-08-22T11:35:38.729Z,0.900
2022-08-22T11:36:26.812Z,0.900
2022-08-22T11:37:42.682Z,0.900
2022-08-22T11:38:39.273Z,0.850
2022-08-22T11:39:31.058Z,1.000
2022-08-22T11:40:24.613Z,0.950
2022-08-22T11:41:23.244Z,0.900
2022-08-22T11:42:22.452Z,0.900
2022-08-22T11:43:27.227Z,1.050
2022-08-22T11:44:23.019Z,0.900
2022-08-22T11:45:34.835Z,0.850
2022-08-22T11:46:29.534Z,0.800
2022-08-22T11:47:20.961Z,0.850
2022-08-22T11:48:22.190Z,0.950
2022-08-22T11:49:31.774Z,0.900
2022-08-22T11:50:29.125Z,0.900
2022-08-22T11:51:24.954Z,0.950
2022-08-22T11:52:20.604Z,0.850
2022-08-22T11:53:29.423Z,0.900
2022-08-22T11:54:30.939Z,0.900
2022-08-22T11:55:27.557Z,0.800
2022-08-22T11:56:31.394Z,0.850
2022-08-22T11:57:27.323Z,0.750
2022-08-22T11:58:22.963Z,0.950
2022-08-22T11:59:24.397Z,1.000
2022-08-22T12:00:31.065Z,1.000
2022-08-22T12:01:27.098Z,0.900
2022-08-22T12:02:22.829Z,0.850
2022-08-22T12:03:23.237Z,0.900
2022-08-22T12:04:31.300Z,0.900
2022-08-22T12:05:27.054Z,1.100
2022-08-22T12:06:30.412Z,0.850
2022-08-22T12:07:24.291Z,0.950
2022-08-22T12:08:30.269Z,0.850
2022-08-22T12:09:24.208Z,0.900
2022-08-22T12:10:21.344Z,0.950
2022-08-22T12:11:28.799Z,1.000
2022-08-22T12:12:26.192Z,0.900
2022-08-22T12:13:35.016Z,0.900
2022-08-22T12:14:27.439Z,0.900
2022-08-22T12:15:28.670Z,1.000
2022-08-22T12:16:21.612Z,0.900
2022-08-22T12:17:55.133Z,0.900
2022-08-22T12:18:21.483Z,0.900
2022-08-22T12:19:25.244Z,0.850
2022-08-22T12:20:34.127Z,1.000
2022-08-22T12:21:33.241Z,0.800
2022-08-22T12:22:28.863Z,0.950
2022-08-22T12:23:43.676Z,0.900
2022-08-22T12:24:34.926Z,0.900
2022-08-22T12:25:34.644Z,0.800
2022-08-22T12:26:27.715Z,1.100
2022-08-22T12:27:29.031Z,1.000
2022-08-22T12:28:29.184Z,0.850
2022-08-22T12:29:33.944Z,1.000
2022-08-22T12:30:32.052Z,0.800
2022-08-22T12:31:32.625Z,0.800
2022-08-22T12:32:29.845Z,1.200
2022-08-22T12:33:24.909Z,0.950
2022-08-22T12:34:23.376Z,0.900
2022-08-22T12:35:30.335Z,1.000
2022-08-22T12:36:25.243Z,1.000
2022-08-22T12:37:24.281Z,0.900
2022-08-22T12:38:34.762Z,0.950
2022-08-22T12:39:27.039Z,0.950
2022-08-22T12:40:30.466Z,0.800
2022-08-22T12:41:28.093Z,0.900
2022-08-22T12:42:30.550Z,0.950
2022-08-22T12:43:25.070Z,0.850
2022-08-22T12:44:25.700Z,1.000
2022-08-22T12:45:21.080Z,0.950
2022-08-22T12:46:28.762Z,0.900
2022-08-22T12:47:31.924Z,0.900
2022-08-22T12:48:25.179Z,0.950
2022-08-22T12:49:29.047Z,1.000
2022-08-22T12:50:27.139Z,0.950
2022-08-22T12:51:26.279Z,0.800
2022-08-22T12:52:23.521Z,0.800
2022-08-22T12:53:29.823Z,0.900
2022-08-22T12:54:23.248Z,0.850
2022-08-22T12:55:25.023Z,1.000
2022-08-22T12:56:21.658Z,0.800
2022-08-22T12:57:27.066Z,0.750
2022-08-22T12:58:21.290Z,0.800
2022-08-22T12:59:25.261Z,0.900
2022-08-22T13:00:26.743Z,0.950
2022-08-22T13:01:34.031Z,0.950
2022-08-22T13:02:37.700Z,0.850
2022-08-22T13:03:19.950Z,0.700
2022-08-22T13:04:33.513Z,0.900
2022-08-22T13:05:21.109Z,1.000
2022-08-22T13:06:27.999Z,0.900
2022-08-22T13:07:30.185Z,0.800
2022-08-22T13:08:19.730Z,0.800
2022-08-22T13:09:35.934Z,1.000
2022-08-22T13:10:24.716Z,0.850
2022-08-22T13:11:23.337Z,1.050
2022-08-22T13:12:24.340Z,0.900
2022-08-22T13:13:36.936Z,0.950
2022-08-22T13:14:27.457Z,0.700
2022-08-22T13:15:25.452Z,0.800
2022-08-22T13:16:33.629Z,0.700
2022-08-22T13:17:25.897Z,0.900
2022-08-22T13:18:31.914Z,0.950
2022-08-22T13:19:25.419Z,0.900
2022-08-22T13:20:34.138Z,0.800
2022-08-22T13:21:24.017Z,0.900
2022-08-22T13:22:24.036Z,0.900
2022-08-22T13:23:21.112Z,0.900
2022-08-22T13:24:38.670Z,0.800
2022-08-22T13:25:26.000Z,1.000
2022-08-22T13:26:32.097Z,0.950
2022-08-22T13:27:32.456Z,0.900
2022-08-22T13:28:24.443Z,1.000
2022-08-22T13:29:26.966Z,0.900
2022-08-22T13:30:25.434Z,0.950
2022-08-22T13:31:31.775Z,0.800
2022-08-22T13:32:27.738Z,0.800
2022-08-22T13:33:21.407Z,0.850
2022-08-22T13:34:31.230Z,0.800
2022-08-22T13:35:32.472Z,0.900
2022-08-22T13:36:25.158Z,0.900
2022-08-22T13:37:30.450Z,1.100
2022-08-22T13:38:26.244Z,0.900
2022-08-22T13:39:25.820Z,0.950
2022-08-22T13:40:22.043Z,0.800
2022-08-22T13:41:24.117Z,1.000
2022-08-22T13:42:36.265Z,0.900
2022-08-22T13:43:23.529Z,1.000
2022-08-22T13:44:48.108Z,0.900
2022-08-22T13:45:28.053Z,1.000
2022-08-22T13:46:19.706Z,1.000
2022-08-22T13:47:35.735Z,1.000
2022-08-22T13:48:29.572Z,0.900
2022-08-22T13:49:20.670Z,1.000
2022-08-22T13:50:23.746Z,0.900
2022-08-22T13:51:35.188Z,0.900
2022-08-22T13:52:33.945Z,0.900
2022-08-22T13:53:27.811Z,1.000
2022-08-22T13:54:21.605Z,0.950
2022-08-22T13:55:37.075Z,0.900
2022-08-22T13:56:24.022Z,0.850
2022-08-22T13:57:24.052Z,1.000
2022-08-22T13:58:37.118Z,0.950
2022-08-22T13:59:50.331Z,0.900
2022-08-22T14:00:29.438Z,1.000
2022-08-22T14:01:25.554Z,1.000
2022-08-22T14:02:35.188Z,1.050
2022-08-22T14:03:28.796Z,0.900
2022-08-22T14:04:32.175Z,0.950
2022-08-22T14:05:33.494Z,0.950
2022-08-22T14:06:48.449Z,1.000
2022-08-22T14:07:25.853Z,1.100
2022-08-22T14:08:21.608Z,1.000
2022-08-22T14:09:34.929Z,1.000
2022-08-22T14:10:29.597Z,1.000
2022-08-22T14:11:24.570Z,0.900
2022-08-22T14:12:50.044Z,0.850
2022-08-22T14:13:30.786Z,0.950
2022-08-22T14:14:27.911Z,1.000
2022-08-22T14:15:32.152Z,1.050
2022-08-22T14:16:22.069Z,0.950
2022-08-22T14:17:29.306Z,1.000
2022-08-22T14:18:30.065Z,1.000
2022-08-22T14:19:23.754Z,0.900
2022-08-22T14:20:36.072Z,0.950
2022-08-22T14:21:26.109Z,1.000
2022-08-22T14:22:22.369Z,0.950
2022-08-22T14:23:27.714Z,0.850
2022-08-22T14:24:30.391Z,1.200
2022-08-22T14:25:25.858Z,1.100
2022-08-22T14:26:32.849Z,0.950
2022-08-22T14:27:30.753Z,0.950
2022-08-22T14:28:29.691Z,0.800
2022-08-22T14:29:32.438Z,0.900
2022-08-22T14:30:31.342Z,1.000
2022-08-22T14:31:28.916Z,1.200
2022-08-22T14:32:26.662Z,0.950
2022-08-22T14:33:22.158Z,1.100
2022-08-22T14:34:24.731Z,0.950
2022-08-22T14:35:34.858Z,1.000
2022-08-22T14:36:25.545Z,1.050
2022-08-22T14:37:19.696Z,0.950
2022-08-22T14:38:46.391Z,1.100
2022-08-22T14:39:22.147Z,1.000
2022-08-22T14:40:20.719Z,1.000
2022-08-22T14:41:52.448Z,0.900
2022-08-22T14:42:21.359Z,0.900
2022-08-22T14:43:22.456Z,0.950
2022-08-22T14:44:26.019Z,0.900
2022-08-22T14:45:29.143Z,0.950
2022-08-22T14:46:27.366Z,1.000
2022-08-22T14:47:54.320Z,1.100
2022-08-22T14:48:31.456Z,1.100
2022-08-22T14:48:33.233Z,1.050
2022-08-22T14:49:28.926Z,1.000
2022-08-22T14:50:21.486Z,1.050
2022-08-22T14:51:26.495Z,1.100
2022-08-22T14:52:31.597Z,1.000
2022-08-22T14:53:25.367Z,1.050
2022-08-22T14:54:29.119Z,1.000
2022-08-22T14:55:24.389Z,0.950
2022-08-22T14:56:34.343Z,1.100
2022-08-22T14:57:21.457Z,0.900
2022-08-22T14:58:31.678Z,0.900
2022-08-22T14:59:31.427Z,0.900
2022-08-22T15:00:28.584Z,1.050
2022-08-22T15:01:21.649Z,0.800
2022-08-22T15:02:26.264Z,1.000
2022-08-22T15:03:25.664Z,0.950
2022-08-22T15:04:21.525Z,0.850
2022-08-22T15:05:38.059Z,0.900
2022-08-22T15:06:28.941Z,0.800
2022-08-22T15:07:25.530Z,0.900
2022-08-22T15:08:20.899Z,1.000
2022-08-22T15:09:24.401Z,0.800
2022-08-22T15:10:25.198Z,0.950
2022-08-22T15:11:21.608Z,0.800
2022-08-22T15:12:22.816Z,0.850
2022-08-22T15:13:22.203Z,1.000
2022-08-22T15:14:23.262Z,0.900
2022-08-22T15:15:21.412Z,0.900
2022-08-22T15:16:31.092Z,0.750
2022-08-22T15:17:23.113Z,0.800
2022-08-22T15:18:24.075Z,0.850
2022-08-22T15:19:27.567Z,0.900
2022-08-22T15:20:34.051Z,1.000
2022-08-22T15:21:24.530Z,0.800
2022-08-22T15:22:25.797Z,0.850
2022-08-22T15:23:45.340Z,0.850
2022-08-22T15:24:21.768Z,0.900
2022-08-22T15:25:22.433Z,0.800
2022-08-22T15:26:34.768Z,0.950
2022-08-22T15:27:28.196Z,0.950
2022-08-22T15:28:25.956Z,1.000
2022-08-22T15:29:20.269Z,0.850
2022-08-22T15:30:29.487Z,0.900
2022-08-22T15:31:30.529Z,0.950
2022-08-22T15:32:42.021Z,1.000
2022-08-22T15:33:34.150Z,0.950
2022-08-22T15:34:27.475Z,0.950
2022-08-22T15:35:20.000Z,1.000
2022-08-22T15:36:19.216Z,0.950
2022-08-22T15:37:29.470Z,0.850
2022-08-22T15:38:26.307Z,0.900
2022-08-22T15:39:21.649Z,0.900
2022-08-22T15:40:32.742Z,0.950
2022-08-22T15:41:35.884Z,1.100
2022-08-22T15:42:20.855Z,1.050
2022-08-22T15:43:23.355Z,1.000
2022-08-22T15:44:34.869Z,0.800
2022-08-22T15:45:25.567Z,0.750
2022-08-22T15:46:24.757Z,1.100
2022-08-22T15:47:28.517Z,0.950
2022-08-22T15:48:27.445Z,0.800
2022-08-22T15:49:19.514Z,0.900
2022-08-22T15:50:22.105Z,0.900
2022-08-22T15:51:30.409Z,0.900
2022-08-22T15:52:27.531Z,0.900
2022-08-22T15:53:21.640Z,0.900
2022-08-22T15:54:27.344Z,0.850
2022-08-22T15:55:21.760Z,0.800
2022-08-22T15:56:23.536Z,0.900
2022-08-22T15:57:19.902Z,0.900
2022-08-22T15:58:30.305Z,0.900
2022-08-22T15:59:26.712Z,0.900
2022-08-22T16:00:23.876Z,0.700
2022-08-22T16:01:32.480Z,0.800
2022-08-22T16:02:29.386Z,0.900
2022-08-22T16:03:25.753Z,1.000
2022-08-22T16:04:19.842Z,1.600
2022-08-22T16:05:24.523Z,1.350
2022-08-22T16:06:24.975Z,1.100
2022-08-22T16:07:26.505Z,1.000
2022-08-22T16:08:33.105Z,0.900
2022-08-22T16:09:32.011Z,0.900
2022-08-22T16:10:24.940Z,0.850
2022-08-22T16:11:19.957Z,0.900
2022-08-22T16:12:28.625Z,0.800
2022-08-22T16:13:27.301Z,0.950
2022-08-22T16:14:22.589Z,0.800
2022-08-22T16:15:31.897Z,0.750
2022-08-22T16:16:30.156Z,0.950
2022-08-22T16:17:27.282Z,0.900
2022-08-22T16:18:21.209Z,0.950
2022-08-22T16:19:47.619Z,0.950
2022-08-22T16:20:26.961Z,1.000
2022-08-22T16:21:21.355Z,0.900
2022-08-22T16:22:33.900Z,0.900
2022-08-22T16:23:25.898Z,0.950
2022-08-22T16:24:23.295Z,1.000
2022-08-22T16:25:21.812Z,0.850
2022-08-22T16:26:32.258Z,0.800
2022-08-22T16:27:29.657Z,0.850
2022-08-22T16:28:36.157Z,0.900
2022-08-22T16:29:21.413Z,0.950
2022-08-22T16:30:31.062Z,0.900
2022-08-22T16:31:25.360Z,1.000
2022-08-22T16:32:19.461Z,0.900
2022-08-22T16:33:23.094Z,1.000
2022-08-22T16:34:22.604Z,0.900
2022-08-22T16:35:27.895Z,0.900
2022-08-22T16:36:24.367Z,0.800
2022-08-22T16:37:27.714Z,0.900
2022-08-22T16:38:33.637Z,0.950
2022-08-22T16:39:19.355Z,1.050
2022-08-22T16:40:25.437Z,1.100
2022-08-22T16:41:25.526Z,0.950
2022-08-22T16:42:22.874Z,1.000
2022-08-22T16:43:21.934Z,0.950
2022-08-22T16:44:28.794Z,1.800
2022-08-22T16:45:25.525Z,1.500
2022-08-22T16:46:24.283Z,1.300
2022-08-22T16:47:22.210Z,1.150
2022-08-22T16:48:20.838Z,0.800
2022-08-22T16:49:25.400Z,0.850
2022-08-22T16:50:26.097Z,1.100
2022-08-22T16:51:23.494Z,0.900
2022-08-22T16:52:24.754Z,0.800
2022-08-22T16:53:25.745Z,0.900
2022-08-22T16:54:26.349Z,0.950
2022-08-22T16:55:28.694Z,0.800
2022-08-22T16:56:22.229Z,0.950
2022-08-22T16:57:33.013Z,0.800
2022-08-22T16:58:29.555Z,0.850
2022-08-22T16:59:24.133Z,0.800
2022-08-22T17:00:34.419Z,0.800
2022-08-22T17:01:30.257Z,0.900
2022-08-22T17:02:19.032Z,0.850
2022-08-22T17:03:22.401Z,0.800
2022-08-22T17:04:33.030Z,0.900
2022-08-22T17:05:30.356Z,0.950
2022-08-22T17:06:23.509Z,0.900
2022-08-22T17:07:19.597Z,0.800
2022-08-22T17:08:24.687Z,0.850
2022-08-22T17:09:28.085Z,0.800
2022-08-22T17:10:27.224Z,0.800
2022-08-22T17:11:22.389Z,0.900
2022-08-22T17:12:44.516Z,0.750
2022-08-22T17:13:27.401Z,1.000
2022-08-22T17:14:19.731Z,0.750
2022-08-22T17:15:31.498Z,0.800
2022-08-22T17:16:23.408Z,0.850
2022-08-22T17:17:25.043Z,0.900
2022-08-22T17:18:23.350Z,0.700
2022-08-22T17:19:22.572Z,1.000
2022-08-22T17:20:34.343Z,0.950
2022-08-22T17:21:25.871Z,0.800
2022-08-22T17:22:32.497Z,0.750
2022-08-22T17:23:25.330Z,0.900
2022-08-22T17:24:32.399Z,0.900
2022-08-22T17:25:29.312Z,0.900
2022-08-22T17:26:21.259Z,0.800
2022-08-22T17:27:23.997Z,0.800
2022-08-22T17:28:21.895Z,0.800
2022-08-22T17:29:29.789Z,0.850
2022-08-22T17:30:26.952Z,0.700
2022-08-22T17:31:24.373Z,0.850
2022-08-22T17:32:34.440Z,0.800
2022-08-22T17:33:28.665Z,0.800
2022-08-22T17:34:25.708Z,0.800
2022-08-22T17:35:21.596Z,0.900
2022-08-22T17:36:27.652Z,0.900
2022-08-22T17:37:29.593Z,0.900
2022-08-22T17:38:25.528Z,0.800
2022-08-22T17:39:36.641Z,0.700
2022-08-22T17:40:33.340Z,0.950
2022-08-22T17:41:28.437Z,0.800
2022-08-22T17:42:21.080Z,0.850
2022-08-22T17:43:26.084Z,0.700
2022-08-22T17:44:25.638Z,0.900
2022-08-22T17:45:27.087Z,0.900
2022-08-22T17:46:32.768Z,0.700
2022-08-22T17:47:20.897Z,0.600
2022-08-22T17:48:30.138Z,0.700
2022-08-22T17:49:20.535Z,0.800
2022-08-22T17:50:29.618Z,1.000
2022-08-22T17:51:27.894Z,0.800
2022-08-22T17:52:24.237Z,0.750
2022-08-22T17:53:29.581Z,0.900
2022-08-22T17:54:30.276Z,0.800
2022-08-22T17:55:23.651Z,0.700
2022-08-22T17:56:23.164Z,0.850
2022-08-22T17:57:31.310Z,0.850
2022-08-22T17:58:37.735Z,0.800
2022-08-22T17:59:21.896Z,0.800
2022-08-22T18:00:35.171Z,0.700
2022-08-22T18:01:28.897Z,0.800
2022-08-22T18:02:25.822Z,0.900
2022-08-22T18:03:20.847Z,1.000
2022-08-22T18:04:26.006Z,0.950
2022-08-22T18:05:25.630Z,0.900
2022-08-22T18:06:22.663Z,0.900
2022-08-22T18:07:32.534Z,0.900
2022-08-22T18:08:38.494Z,0.900
2022-08-22T18:09:23.563Z,0.700
2022-08-22T18:10:21.379Z,0.950
2022-08-22T18:11:25.536Z,0.850
2022-08-22T18:12:42.395Z,1.000
2022-08-22T18:13:28.457Z,0.800
2022-08-22T18:14:21.115Z,0.900
2022-08-22T18:15:32.336Z,0.850
2022-08-22T18:16:27.048Z,0.850
2022-08-22T18:17:19.915Z,0.900
2022-08-22T18:18:33.842Z,1.000
2022-08-22T18:19:24.722Z,0.750
2022-08-22T18:20:21.751Z,0.700
2022-08-22T18:21:26.601Z,0.750
2022-08-22T18:22:32.239Z,0.850
2022-08-22T18:23:35.980Z,0.800
2022-08-22T18:24:23.516Z,0.700
2022-08-22T18:25:34.374Z,0.700
2022-08-22T18:26:27.038Z,0.750
2022-08-22T18:27:29.963Z,0.800
2022-08-22T18:28:27.707Z,0.800
2022-08-22T18:29:22.258Z,0.700
2022-08-22T18:30:26.553Z,0.850
2022-08-22T18:31:22.268Z,0.700
2022-08-22T18:32:21.835Z,0.750
2022-08-22T18:33:27.851Z,0.700
2022-08-22T18:34:23.509Z,0.700
2022-08-22T18:35:28.718Z,0.650
2022-08-22T18:36:24.677Z,0.650
2022-08-22T18:37:39.593Z,0.600
2022-08-22T18:38:28.831Z,0.650
2022-08-22T18:39:26.260Z,0.600
2022-08-22T18:40:27.436Z,0.600
2022-08-22T18:41:22.335Z,0.500
2022-08-22T18:42:26.284Z,0.600
2022-08-22T18:43:29.968Z,0.600
2022-08-22T18:44:25.180Z,0.600
2022-08-22T18:45:21.518Z,0.600
2022-08-22T18:46:25.919Z,0.600
2022-08-22T18:47:30.034Z,0.650
2022-08-22T18:48:24.167Z,0.650
2022-08-22T18:49:24.353Z,0.750
2022-08-22T18:50:24.451Z,0.600
2022-08-22T18:51:28.547Z,0.650
2022-08-22T18:52:30.835Z,0.600
2022-08-22T18:53:31.354Z,0.700
2022-08-22T18:54:25.845Z,0.750
2022-08-22T18:55:28.896Z,0.700
2022-08-22T18:56:30.913Z,0.700
2022-08-22T18:57:26.622Z,0.600
2022-08-22T18:58:32.336Z,0.700
2022-08-22T18:59:22.761Z,0.800
2022-08-22T19:00:22.168Z,0.650
2022-08-22T19:01:31.089Z,0.650
2022-08-22T19:02:21.954Z,0.700
2022-08-22T19:03:32.729Z,0.700
2022-08-22T19:04:28.656Z,0.600
2022-08-22T19:05:27.670Z,0.600
2022-08-22T19:06:22.247Z,0.550
2022-08-22T19:07:19.603Z,0.650
2022-08-22T19:08:23.377Z,0.600
2022-08-22T19:09:21.710Z,0.750
2022-08-22T19:10:31.542Z,0.600
2022-08-22T19:11:36.473Z,0.800
2022-08-22T19:12:23.646Z,0.700
2022-08-22T19:13:23.363Z,0.650
2022-08-22T19:14:27.552Z,0.600
2022-08-22T19:15:30.019Z,0.600
2022-08-22T19:16:21.772Z,0.700
2022-08-22T19:17:25.176Z,0.700
2022-08-22T19:18:29.667Z,0.700
2022-08-22T19:19:23.567Z,0.700
2022-08-22T19:20:23.478Z,0.700
2022-08-22T19:21:30.676Z,0.700
2022-08-22T19:22:23.364Z,0.600